Time;durP1;ratioP1;P1;durP2;ratioP2;P2;SDS_P1;SDS_P2;PMS_P1;PMS_P2;Temp;Humidity;BMP_temperature;BMP_pressure;BME280_temperature;BME280_humidity;BME280_pressure;Samples;Min_cycle;Max_cycle;Signal;HPM_P1;HPM_P2
2022/01/29 00:01:42;;;;;;;25.63;8.98;;;;;;;;;;6222486;23;20009;-74
2022/01/29 00:04:10;;;;;;;31.17;10.13;;;;;;;;;;6223977;23;20107;-74
2022/01/29 00:06:36;;;;;;;30.98;10.27;;;;;;;;;;6222904;23;20047;-74
2022/01/29 00:09:02;;;;;;;34.03;10.32;;;;;;;;;;6210928;23;20023;-73
2022/01/29 00:11:30;;;;;;;40.25;11.88;;;;;;;;;;6211422;23;20008;-73
2022/01/29 00:13:57;;;;;;;39.92;13.88;;;;;;;;;;6220916;23;20032;-73
2022/01/29 00:16:23;;;;;;;35.85;12.52;;;;;;;;;;6186410;23;20012;-73
2022/01/29 00:18:49;;;;;;;32.83;10.68;;;;;;;;;;6221889;23;20000;-73
2022/01/29 00:21:15;;;;;;;33.67;12.13;;;;;;;;;;6221895;23;20461;-72
2022/01/29 00:23:41;;;;;;;43.15;12.10;;;;;;;;;;6221637;23;20310;-73
2022/01/29 00:26:07;;;;;;;38.17;11.65;;;;;;;;;;6221892;23;20015;-73
2022/01/29 00:28:35;;;;;;;29.00;10.85;;;;;;;;;;6221301;23;20028;-73
2022/01/29 00:31:03;;;;;;;34.25;11.15;;;;;;;;;;6220694;23;20430;-72
2022/01/29 00:33:29;;;;;;;36.67;11.57;;;;;;;;;;6221657;23;20451;-72
2022/01/29 00:35:55;;;;;;;32.83;13.77;;;;;;;;;;6223364;23;20509;-72
2022/01/29 00:38:21;;;;;;;36.78;12.02;;;;;;;;;;6210259;23;20078;-73
2022/01/29 00:40:47;;;;;;;34.78;11.60;;;;;;;;;;6221529;23;20414;-73
2022/01/29 00:43:13;;;;;;;30.50;11.60;;;;;;;;;;6221471;23;20004;-73
2022/01/29 00:45:39;;;;;;;40.58;11.48;;;;;;;;;;6222534;23;19997;-73
2022/01/29 00:48:06;;;;;;;39.42;12.32;;;;;;;;;;6221656;23;20313;-72
2022/01/29 00:50:32;;;;;;;39.25;12.73;;;;;;;;;;6210473;23;20015;-73
2022/01/29 00:52:58;;;;;;;41.10;12.05;;;;;;;;;;6209613;23;20036;-73
2022/01/29 00:55:24;;;;;;;39.88;13.18;;;;;;;;;;6221637;23;20321;-73
2022/01/29 00:57:50;;;;;;;36.45;12.13;;;;;;;;;;6221838;23;20016;-72
2022/01/29 01:00:17;;;;;;;54.88;13.10;;;;;;;;;;6221135;23;20012;-72
2022/01/29 01:02:43;;;;;;;38.67;12.70;;;;;;;;;;6221964;23;20004;-73
2022/01/29 01:05:09;;;;;;;37.85;13.68;;;;;;;;;;6222913;23;20001;-73
2022/01/29 01:07:35;;;;;;;44.67;15.23;;;;;;;;;;6221788;23;19993;-73
2022/01/29 01:10:02;;;;;;;35.20;13.32;;;;;;;;;;6222373;23;20072;-73
2022/01/29 01:12:28;;;;;;;38.40;13.88;;;;;;;;;;6211208;23;20008;-73
2022/01/29 01:14:54;;;;;;;40.63;13.70;;;;;;;;;;6221981;23;20001;-73
2022/01/29 01:17:20;;;;;;;35.47;13.23;;;;;;;;;;6221369;23;19996;-73
2022/01/29 01:19:47;;;;;;;47.03;13.98;;;;;;;;;;6221597;23;20050;-72
2022/01/29 01:22:15;;;;;;;41.28;14.93;;;;;;;;;;6210595;23;20001;-73
2022/01/29 01:24:41;;;;;;;44.33;14.43;;;;;;;;;;6221318;23;20039;-73
2022/01/29 01:27:07;;;;;;;38.50;13.65;;;;;;;;;;6221156;23;20000;-73
2022/01/29 01:29:33;;;;;;;38.63;12.77;;;;;;;;;;6221780;23;20286;-72
2022/01/29 01:31:59;;;;;;;41.55;14.00;;;;;;;;;;6221614;23;20036;-73
2022/01/29 01:34:29;;;;;;;41.22;15.43;;;;;;;;;;6221498;23;20008;-72
2022/01/29 01:37:01;;;;;;;46.85;14.07;;;;;;;;;;6210361;23;20551;-72
2022/01/29 01:39:31;;;;;;;38.95;13.63;;;;;;;;;;6221769;23;19997;-72
2022/01/29 01:42:05;;;;;;;38.47;13.70;;;;;;;;;;6221791;23;20001;-73
2022/01/29 01:44:38;;;;;;;34.30;11.50;;;;;;;;;;6222298;23;20441;-72
2022/01/29 01:47:05;;;;;;;40.15;12.75;;;;;;;;;;6210148;23;20001;-72
2022/01/29 01:49:31;;;;;;;36.50;12.65;;;;;;;;;;6221324;23;20314;-72
2022/01/29 01:51:57;;;;;;;37.00;13.15;;;;;;;;;;6221252;23;20001;-72
2022/01/29 01:54:23;;;;;;;42.17;12.35;;;;;;;;;;6220960;23;20005;-73
2022/01/29 01:56:49;;;;;;;46.67;12.45;;;;;;;;;;6221842;23;20001;-76
2022/01/29 01:59:15;;;;;;;52.53;13.88;;;;;;;;;;6220539;23;20373;-72
2022/01/29 02:01:41;;;;;;;38.78;12.10;;;;;;;;;;6222211;23;20299;-73
2022/01/29 02:04:08;;;;;;;36.75;12.57;;;;;;;;;;6220947;23;20024;-73
2022/01/29 02:06:34;;;;;;;37.22;11.15;;;;;;;;;;6209763;23;20013;-73
2022/01/29 02:09:01;;;;;;;35.55;11.27;;;;;;;;;;6221496;23;20007;-73
2022/01/29 02:11:28;;;;;;;40.13;12.45;;;;;;;;;;6210462;23;19996;-73
2022/01/29 02:13:57;;;;;;;42.75;11.63;;;;;;;;;;6221387;23;20103;-73
2022/01/29 02:16:23;;;;;;;39.00;11.88;;;;;;;;;;6210198;23;20015;-73
2022/01/29 02:18:49;;;;;;;26.73;11.68;;;;;;;;;;6221375;23;19996;-73
2022/01/29 02:21:17;;;;;;;34.53;11.40;;;;;;;;;;6221230;23;20330;-73
2022/01/29 02:23:43;;;;;;;39.53;13.73;;;;;;;;;;6222844;23;20425;-73
2022/01/29 02:26:09;;;;;;;37.88;13.80;;;;;;;;;;6223089;23;20005;-73
2022/01/29 02:28:35;;;;;;;36.55;12.32;;;;;;;;;;6223406;23;20007;-73
2022/01/29 02:31:03;;;;;;;41.63;12.13;;;;;;;;;;6211224;23;20465;-73
2022/01/29 02:33:30;;;;;;;35.67;12.68;;;;;;;;;;6222564;23;20008;-73
2022/01/29 02:35:57;;;;;;;34.67;12.55;;;;;;;;;;6223764;23;20035;-73
2022/01/29 02:38:24;;;;;;;37.03;12.73;;;;;;;;;;6223276;23;20047;-73
2022/01/29 02:40:54;;;;;;;31.45;11.98;;;;;;;;;;6222866;23;20418;-73
2022/01/29 02:43:23;;;;;;;37.10;12.88;;;;;;;;;;6223571;23;20005;-73
2022/01/29 02:45:51;;;;;;;36.35;12.55;;;;;;;;;;6223737;23;20064;-73
2022/01/29 02:48:18;;;;;;;33.53;12.82;;;;;;;;;;6223676;23;20011;-73
2022/01/29 02:50:44;;;;;;;35.13;12.88;;;;;;;;;;6223526;23;20001;-73
2022/01/29 02:53:10;;;;;;;38.63;12.77;;;;;;;;;;6223081;23;20000;-73
2022/01/29 02:55:36;;;;;;;43.75;12.40;;;;;;;;;;6223679;23;20008;-73
2022/01/29 02:58:03;;;;;;;34.08;12.25;;;;;;;;;;6222467;23;20092;-73
2022/01/29 03:00:29;;;;;;;32.00;12.80;;;;;;;;;;6222376;23;20015;-73
2022/01/29 03:02:55;;;;;;;34.38;12.88;;;;;;;;;;6223855;23;20005;-73
2022/01/29 03:05:21;;;;;;;30.92;12.10;;;;;;;;;;6222609;23;20004;-73
2022/01/29 03:07:47;;;;;;;32.78;13.18;;;;;;;;;;6222888;23;19993;-73
2022/01/29 03:10:14;;;;;;;31.17;11.70;;;;;;;;;;6223432;23;20318;-73
2022/01/29 03:12:41;;;;;;;35.80;12.90;;;;;;;;;;6222428;23;20005;-73
2022/01/29 03:15:07;;;;;;;37.00;12.85;;;;;;;;;;6220764;23;20001;-73
2022/01/29 03:17:34;;;;;;;30.42;13.70;;;;;;;;;;6212095;23;20318;-73
2022/01/29 03:20:00;;;;;;;35.60;13.25;;;;;;;;;;6223308;23;20000;-74
2022/01/29 03:22:26;;;;;;;36.10;13.98;;;;;;;;;;6224110;23;20422;-74
2022/01/29 03:24:52;;;;;;;41.05;12.77;;;;;;;;;;6222668;23;20437;-74
2022/01/29 03:27:18;;;;;;;38.97;13.73;;;;;;;;;;6225216;23;20289;-74
2022/01/29 03:29:44;;;;;;;32.05;13.45;;;;;;;;;;6224667;23;20019;-73
2022/01/29 03:32:10;;;;;;;36.83;14.18;;;;;;;;;;6223728;23;20000;-73
2022/01/29 03:34:36;;;;;;;36.50;13.02;;;;;;;;;;6222316;23;20500;-73
2022/01/29 03:37:04;;;;;;;34.65;13.40;;;;;;;;;;6211125;23;20016;-73
2022/01/29 03:39:33;;;;;;;42.35;14.45;;;;;;;;;;6222614;23;20042;-73
2022/01/29 03:42:03;;;;;;;30.10;13.20;;;;;;;;;;6223542;23;20426;-73
2022/01/29 03:44:29;;;;;;;36.33;13.77;;;;;;;;;;6223032;23;20434;-73
2022/01/29 03:46:55;;;;;;;41.50;14.60;;;;;;;;;;6222392;23;20007;-74
2022/01/29 03:49:21;;;;;;;41.25;15.10;;;;;;;;;;6222710;23;19993;-73
2022/01/29 03:51:47;;;;;;;36.17;13.68;;;;;;;;;;6222333;23;20342;-73
2022/01/29 03:54:14;;;;;;;44.45;14.32;;;;;;;;;;6222931;23;20012;-72
2022/01/29 03:56:40;;;;;;;35.70;13.60;;;;;;;;;;6222494;23;20080;-73
2022/01/29 03:59:06;;;;;;;34.08;14.52;;;;;;;;;;6222214;23;20012;-72
2022/01/29 04:01:32;;;;;;;33.42;14.00;;;;;;;;;;6211553;23;20005;-72
2022/01/29 04:03:58;;;;;;;35.83;13.73;;;;;;;;;;6222468;23;20031;-72
2022/01/29 04:06:24;;;;;;;35.40;13.85;;;;;;;;;;6222589;23;20055;-72
2022/01/29 04:08:50;;;;;;;37.33;14.25;;;;;;;;;;6223016;23;20020;-73
2022/01/29 04:11:17;;;;;;;35.67;14.73;;;;;;;;;;6221944;23;20007;-72
2022/01/29 04:13:46;;;;;;;36.97;14.68;;;;;;;;;;6222587;23;20054;-72
2022/01/29 04:16:14;;;;;;;36.58;14.85;;;;;;;;;;6222074;23;20004;-73
2022/01/29 04:18:40;;;;;;;35.90;14.65;;;;;;;;;;6221988;23;20007;-72
2022/01/29 04:21:06;;;;;;;33.40;14.68;;;;;;;;;;6223144;23;20081;-72
2022/01/29 04:23:33;;;;;;;35.30;13.70;;;;;;;;;;6222155;23;20016;-72
2022/01/29 04:26:00;;;;;;;29.85;12.77;;;;;;;;;;6222517;23;20036;-72
2022/01/29 04:28:30;;;;;;;35.22;16.52;;;;;;;;;;6222893;23;20039;-72
2022/01/29 04:31:05;;;;;;;27.20;14.20;;;;;;;;;;6210002;23;20000;-72
2022/01/29 04:33:32;;;;;;;33.60;15.38;;;;;;;;;;6222780;23;20390;-72
2022/01/29 04:35:59;;;;;;;30.58;13.52;;;;;;;;;;6210116;23;20012;-72
2022/01/29 04:38:26;;;;;;;36.13;14.73;;;;;;;;;;6210261;23;20000;-72
2022/01/29 04:40:52;;;;;;;32.38;14.02;;;;;;;;;;6222780;23;20381;-72
2022/01/29 04:43:18;;;;;;;37.40;13.63;;;;;;;;;;6210320;23;20004;-72
2022/01/29 04:45:45;;;;;;;28.65;13.02;;;;;;;;;;6221503;23;20330;-73
2022/01/29 04:48:11;;;;;;;35.15;13.50;;;;;;;;;;6222866;23;20060;-72
2022/01/29 04:50:37;;;;;;;30.25;13.52;;;;;;;;;;6221397;23;19996;-72
2022/01/29 04:53:03;;;;;;;36.47;12.80;;;;;;;;;;6222185;23;20124;-73
2022/01/29 04:55:29;;;;;;;32.78;13.55;;;;;;;;;;6221862;23;20001;-73
2022/01/29 04:57:55;;;;;;;32.55;12.15;;;;;;;;;;6221770;23;20096;-73
2022/01/29 05:00:21;;;;;;;29.27;12.77;;;;;;;;;;6210200;23;20008;-73
2022/01/29 05:02:47;;;;;;;28.58;13.00;;;;;;;;;;6222576;23;20004;-73
2022/01/29 05:05:13;;;;;;;26.90;12.65;;;;;;;;;;6221333;23;19996;-73
2022/01/29 05:07:39;;;;;;;31.50;12.98;;;;;;;;;;6222539;23;20001;-73
2022/01/29 05:10:06;;;;;;;32.22;12.48;;;;;;;;;;6220976;23;20001;-73
2022/01/29 05:29:00;;;;;;;28.52;11.88;;;;;;;;;;6221158;23;20011;-73
2022/01/29 05:31:27;;;;;;;24.23;11.75;;;;;;;;;;6211449;23;20005;-72
2022/01/29 05:33:53;;;;;;;30.85;13.60;;;;;;;;;;6221589;23;20009;-73
2022/01/29 05:36:19;;;;;;;26.52;13.70;;;;;;;;;;6209991;23;20437;-73
2022/01/29 05:38:45;;;;;;;25.83;12.43;;;;;;;;;;6211279;23;20511;-73
2022/01/29 05:41:11;;;;;;;24.58;12.25;;;;;;;;;;6222711;23;20051;-73
2022/01/29 05:43:37;;;;;;;24.63;12.43;;;;;;;;;;6222625;23;20317;-73
2022/01/29 05:46:03;;;;;;;28.45;12.57;;;;;;;;;;6222480;23;20043;-73
2022/01/29 05:48:29;;;;;;;27.67;11.23;;;;;;;;;;6184833;23;20481;-73
2022/01/29 05:50:55;;;;;;;32.50;11.85;;;;;;;;;;6221103;23;20008;-71
2022/01/29 05:53:21;;;;;;;26.90;11.60;;;;;;;;;;6221608;23;20100;-72
2022/01/29 05:55:48;;;;;;;25.67;11.55;;;;;;;;;;6221126;23;20060;-72
2022/01/29 05:58:14;;;;;;;24.15;13.10;;;;;;;;;;6223631;23;19993;-72
2022/01/29 06:00:40;;;;;;;28.00;12.00;;;;;;;;;;6222462;23;20128;-73
2022/01/29 06:03:10;;;;;;;22.92;11.93;;;;;;;;;;6224233;23;20330;-72
2022/01/29 06:05:36;;;;;;;24.98;10.50;;;;;;;;;;6224738;23;19999;-72
2022/01/29 06:08:03;;;;;;;19.20;10.90;;;;;;;;;;6223257;23;20005;-72
2022/01/29 06:10:29;;;;;;;25.60;10.90;;;;;;;;;;6223905;23;20377;-72
2022/01/29 06:12:59;;;;;;;20.52;10.45;;;;;;;;;;6223806;23;20007;-71
2022/01/29 06:15:25;;;;;;;21.15;10.63;;;;;;;;;;6210511;23;20001;-72
2022/01/29 06:17:51;;;;;;;23.92;11.18;;;;;;;;;;6224614;23;20429;-71
2022/01/29 06:20:17;;;;;;;26.13;10.93;;;;;;;;;;6223590;23;20394;-71
2022/01/29 06:22:43;;;;;;;29.27;10.90;;;;;;;;;;6223635;23;20372;-71
2022/01/29 06:25:09;;;;;;;21.58;11.43;;;;;;;;;;6212826;23;20311;-72
2022/01/29 06:27:35;;;;;;;38.85;21.05;;;;;;;;;;6223533;23;20051;-72
2022/01/29 06:30:01;;;;;;;23.30;10.70;;;;;;;;;;6224231;23;19997;-72
2022/01/29 06:32:27;;;;;;;26.40;11.10;;;;;;;;;;6223577;23;20001;-72
2022/01/29 06:34:54;;;;;;;23.98;11.48;;;;;;;;;;6222020;23;20084;-72
2022/01/29 06:37:20;;;;;;;16.30;10.10;;;;;;;;;;6222503;23;19997;-72
2022/01/29 06:39:46;;;;;;;22.30;10.20;;;;;;;;;;6223638;23;19993;-72
2022/01/29 06:42:12;;;;;;;23.23;10.85;;;;;;;;;;6223977;23;19992;-72
2022/01/29 06:44:38;;;;;;;23.52;10.35;;;;;;;;;;6224070;23;20004;-72
2022/01/29 06:47:04;;;;;;;18.13;10.57;;;;;;;;;;6223736;23;20047;-72
2022/01/29 06:49:31;;;;;;;24.65;10.25;;;;;;;;;;6224025;23;20075;-72
2022/01/29 06:51:57;;;;;;;26.40;10.18;;;;;;;;;;6223984;23;20001;-72
2022/01/29 06:54:23;;;;;;;23.42;10.10;;;;;;;;;;6211733;23;20484;-72
2022/01/29 06:56:49;;;;;;;18.08;9.43;;;;;;;;;;6223821;23;20087;-72
2022/01/29 06:59:15;;;;;;;35.38;19.42;;;;;;;;;;6222262;23;20003;-72
2022/01/29 07:01:41;;;;;;;19.73;9.07;;;;;;;;;;6223252;23;19997;-72
2022/01/29 07:04:07;;;;;;;26.85;10.48;;;;;;;;;;6224390;23;20020;-72
2022/01/29 07:06:33;;;;;;;19.27;9.38;;;;;;;;;;6221001;23;20004;-72
2022/01/29 07:08:59;;;;;;;20.65;9.70;;;;;;;;;;6223947;23;20000;-72
2022/01/29 07:11:26;;;;;;;18.45;9.15;;;;;;;;;;6223131;23;20005;-73
2022/01/29 07:14:01;;;;;;;19.05;9.93;;;;;;;;;;6211167;23;20512;-73
2022/01/29 07:16:27;;;;;;;17.70;8.50;;;;;;;;;;6211987;23;20009;-74
2022/01/29 07:18:53;;;;;;;22.08;9.50;;;;;;;;;;6211757;23;20008;-73
2022/01/29 07:21:19;;;;;;;22.30;8.95;;;;;;;;;;6223181;23;20004;-73
2022/01/29 07:23:45;;;;;;;18.50;9.13;;;;;;;;;;6223459;23;20004;-73
2022/01/29 07:26:11;;;;;;;17.15;8.43;;;;;;;;;;6222135;23;20013;-74
2022/01/29 07:28:39;;;;;;;21.83;9.57;;;;;;;;;;6222925;23;19997;-73
2022/01/29 07:31:05;;;;;;;18.73;8.55;;;;;;;;;;6223058;23;20004;-73
2022/01/29 07:33:31;;;;;;;18.85;7.95;;;;;;;;;;6222557;23;20007;-73
2022/01/29 07:35:57;;;;;;;26.20;9.40;;;;;;;;;;6223268;23;20373;-73
2022/01/29 07:38:23;;;;;;;21.13;10.05;;;;;;;;;;6223121;23;20421;-74
2022/01/29 07:40:50;;;;;;;20.42;7.53;;;;;;;;;;6222791;23;20453;-74
2022/01/29 07:43:16;;;;;;;19.65;7.68;;;;;;;;;;6223529;23;20000;-73
2022/01/29 07:45:42;;;;;;;21.17;8.07;;;;;;;;;;6222529;23;20075;-73
2022/01/29 07:48:08;;;;;;;22.65;9.18;;;;;;;;;;6222874;23;20092;-73
2022/01/29 07:50:34;;;;;;;22.45;9.45;;;;;;;;;;6222370;23;19997;-72
2022/01/29 07:53:00;;;;;;;19.55;7.82;;;;;;;;;;6222327;23;20441;-72
2022/01/29 07:55:26;;;;;;;25.58;8.95;;;;;;;;;;6223063;23;20004;-71
2022/01/29 07:57:52;;;;;;;16.08;6.22;;;;;;;;;;6221360;23;20001;-71
2022/01/29 08:00:19;;;;;;;18.27;7.07;;;;;;;;;;6222470;23;20001;-71
2022/01/29 08:02:45;;;;;;;17.98;7.78;;;;;;;;;;6223020;23;20005;-71
2022/01/29 08:05:11;;;;;;;19.10;6.93;;;;;;;;;;6222040;23;19998;-71
2022/01/29 08:07:38;;;;;;;17.05;6.97;;;;;;;;;;6222861;23;20005;-71
2022/01/29 08:10:05;;;;;;;18.02;7.20;;;;;;;;;;6222411;23;20004;-71
2022/01/29 08:12:31;;;;;;;13.27;6.80;;;;;;;;;;6222317;23;20024;-71
2022/01/29 08:14:57;;;;;;;17.63;6.35;;;;;;;;;;6211604;23;20059;-71
2022/01/29 08:17:23;;;;;;;23.00;6.47;;;;;;;;;;6223006;23;19997;-71
2022/01/29 08:19:50;;;;;;;19.00;6.53;;;;;;;;;;6210781;23;20479;-71
2022/01/29 08:22:17;;;;;;;24.40;7.85;;;;;;;;;;6222735;23;20003;-71
2022/01/29 08:24:43;;;;;;;17.38;6.78;;;;;;;;;;6221651;23;20072;-71
2022/01/29 08:27:09;;;;;;;18.45;6.18;;;;;;;;;;6222654;23;20485;-71
2022/01/29 08:29:35;;;;;;;12.23;5.22;;;;;;;;;;6222320;23;20035;-71
2022/01/29 08:32:01;;;;;;;25.23;7.13;;;;;;;;;;6221716;23;20007;-71
2022/01/29 08:34:28;;;;;;;15.50;5.72;;;;;;;;;;6222457;23;19997;-71
2022/01/29 08:36:58;;;;;;;16.13;6.55;;;;;;;;;;6223180;23;20395;-71
2022/01/29 08:39:24;;;;;;;13.07;5.30;;;;;;;;;;6223330;23;19992;-74
2022/01/29 08:41:51;;;;;;;12.50;5.43;;;;;;;;;;6223119;23;20001;-72
2022/01/29 08:44:17;;;;;;;11.40;5.28;;;;;;;;;;6210694;23;20001;-71
2022/01/29 08:46:43;;;;;;;11.40;5.25;;;;;;;;;;6222538;23;20081;-71
2022/01/29 08:49:09;;;;;;;14.80;5.70;;;;;;;;;;6223167;23;20018;-71
2022/01/29 08:51:35;;;;;;;18.98;4.97;;;;;;;;;;6222190;23;20047;-71
2022/01/29 08:54:02;;;;;;;12.32;4.20;;;;;;;;;;6222446;23;20004;-71
2022/01/29 08:56:28;;;;;;;9.68;4.68;;;;;;;;;;6209875;23;20012;-71
2022/01/29 08:58:54;;;;;;;14.13;4.35;;;;;;;;;;6221389;23;20429;-71
2022/01/29 09:01:20;;;;;;;11.25;4.00;;;;;;;;;;6220854;23;20004;-71
2022/01/29 09:03:46;;;;;;;15.77;4.32;;;;;;;;;;6220378;23;20012;-73
2022/01/29 09:06:12;;;;;;;14.88;4.32;;;;;;;;;;6220970;23;20031;-72
2022/01/29 09:08:39;;;;;;;15.32;4.15;;;;;;;;;;6222590;23;20436;-72
2022/01/29 09:11:06;;;;;;;12.27;4.20;;;;;;;;;;6221038;23;20414;-72
2022/01/29 09:13:32;;;;;;;13.02;3.15;;;;;;;;;;6221221;23;20368;-72
2022/01/29 09:15:58;;;;;;;40.55;18.23;;;;;;;;;;6220791;23;20140;-73
2022/01/29 09:18:25;;;;;;;13.25;3.80;;;;;;;;;;6220983;23;19993;-72
2022/01/29 09:20:51;;;;;;;13.88;3.85;;;;;;;;;;6222547;23;19993;-72
2022/01/29 09:23:17;;;;;;;12.98;3.70;;;;;;;;;;6221515;23;20426;-73
2022/01/29 09:25:44;;;;;;;19.00;5.80;;;;;;;;;;6221614;23;20036;-73
2022/01/29 09:28:11;;;;;;;22.48;6.95;;;;;;;;;;6221219;23;20004;-73
2022/01/29 09:30:38;;;;;;;17.40;5.80;;;;;;;;;;6222356;23;20322;-72
2022/01/29 09:33:04;;;;;;;9.95;4.00;;;;;;;;;;6220958;23;20001;-72
2022/01/29 09:35:30;;;;;;;11.90;4.50;;;;;;;;;;6220975;23;20068;-72
2022/01/29 09:37:56;;;;;;;13.00;4.78;;;;;;;;;;6220680;23;19997;-73
2022/01/29 09:40:23;;;;;;;13.40;4.03;;;;;;;;;;6209729;23;20013;-73
2022/01/29 09:42:51;;;;;;;13.73;3.63;;;;;;;;;;6220847;23;20000;-73
2022/01/29 09:45:18;;;;;;;12.43;2.88;;;;;;;;;;6221589;23;20011;-73
2022/01/29 09:47:46;;;;;;;10.90;3.17;;;;;;;;;;6219015;23;20357;-73
2022/01/29 09:50:14;;;;;;;12.07;2.53;;;;;;;;;;6220326;23;19992;-73
2022/01/29 09:52:40;;;;;;;16.65;2.75;;;;;;;;;;6221843;23;19997;-73
2022/01/29 09:55:07;;;;;;;12.65;3.35;;;;;;;;;;6209854;23;20111;-73
2022/01/29 09:57:34;;;;;;;10.90;3.10;;;;;;;;;;6220815;23;20004;-73
2022/01/29 10:00:00;;;;;;;21.33;2.97;;;;;;;;;;6222116;23;20001;-73
2022/01/29 10:02:26;;;;;;;16.08;2.55;;;;;;;;;;6220933;23;20001;-73
2022/01/29 10:04:53;;;;;;;15.77;2.97;;;;;;;;;;6221570;23;20003;-73
2022/01/29 10:07:27;;;;;;;10.80;3.17;;;;;;;;;;6221483;23;19993;-73
2022/01/29 10:09:54;;;;;;;10.80;2.92;;;;;;;;;;6221687;23;20000;-74
2022/01/29 10:12:20;;;;;;;9.85;2.25;;;;;;;;;;6221065;23;20372;-73
2022/01/29 10:15:06;;;;;;;19.23;3.35;;;;;;;;;;6220573;23;20012;-73
2022/01/29 10:17:39;;;;;;;14.15;3.40;;;;;;;;;;6221701;23;20005;-73
2022/01/29 10:20:09;;;;;;;18.35;2.88;;;;;;;;;;6221279;23;19993;-73
2022/01/29 10:22:36;;;;;;;10.13;2.30;;;;;;;;;;6211623;23;20000;-73
2022/01/29 10:25:22;;;;;;;14.73;1.95;;;;;;;;;;6220179;23;20420;-73
2022/01/29 10:28:07;;;;;;;13.27;2.47;;;;;;;;;;6209865;23;20004;-74
2022/01/29 10:30:37;;;;;;;12.90;2.00;;;;;;;;;;6222018;23;20074;-73
2022/01/29 10:33:20;;;;;;;8.63;2.58;;;;;;;;;;6221134;23;20004;-73
2022/01/29 10:35:47;;;;;;;12.13;2.88;;;;;;;;;;6220954;23;20005;-73
2022/01/29 10:38:13;;;;;;;7.22;1.90;;;;;;;;;;6220908;23;20005;-73
2022/01/29 10:40:39;;;;;;;7.72;1.48;;;;;;;;;;6220503;23;20005;-73
2022/01/29 10:43:06;;;;;;;14.55;2.17;;;;;;;;;;6221417;23;20028;-73
2022/01/29 10:45:34;;;;;;;12.18;2.53;;;;;;;;;;6222043;23;20005;-73
2022/01/29 10:48:00;;;;;;;14.43;2.75;;;;;;;;;;6210600;23;20008;-73
2022/01/29 10:50:27;;;;;;;13.07;1.83;;;;;;;;;;6223096;23;20005;-73
2022/01/29 10:52:53;;;;;;;7.50;2.25;;;;;;;;;;6221476;23;20013;-73
2022/01/29 10:55:19;;;;;;;8.63;2.33;;;;;;;;;;6211025;23;20050;-74
2022/01/29 10:57:46;;;;;;;15.00;2.78;;;;;;;;;;6223475;23;19993;-73
2022/01/29 11:00:24;;;;;;;12.65;2.75;;;;;;;;;;6222653;23;20024;-73
2022/01/29 11:02:51;;;;;;;15.85;2.17;;;;;;;;;;6223100;23;20012;-73
2022/01/29 11:05:18;;;;;;;19.92;2.90;;;;;;;;;;6222951;23;19997;-73
2022/01/29 11:07:47;;;;;;;16.33;2.83;;;;;;;;;;6222452;23;20377;-74
2022/01/29 11:10:13;;;;;;;10.43;2.17;;;;;;;;;;6211704;23;20063;-74
2022/01/29 11:12:43;;;;;;;15.00;2.30;;;;;;;;;;6222420;23;20016;-73
2022/01/29 11:15:10;;;;;;;16.85;2.05;;;;;;;;;;6223353;23;20088;-73
2022/01/29 11:17:36;;;;;;;11.52;2.22;;;;;;;;;;6223195;23;20104;-73
2022/01/29 11:20:02;;;;;;;13.13;2.03;;;;;;;;;;6223075;23;20071;-73
2022/01/29 11:22:40;;;;;;;15.65;2.78;;;;;;;;;;6211224;23;20009;-74
2022/01/29 11:25:08;;;;;;;13.35;2.17;;;;;;;;;;6211580;23;20008;-73
2022/01/29 11:27:37;;;;;;;10.27;2.08;;;;;;;;;;6221321;23;20023;-73
2022/01/29 11:30:09;;;;;;;13.05;2.63;;;;;;;;;;6222922;23;20004;-73
2022/01/29 11:32:38;;;;;;;10.18;2.25;;;;;;;;;;6212692;23;20307;-73
2022/01/29 11:35:05;;;;;;;14.80;2.28;;;;;;;;;;6221939;23;20058;-73
2022/01/29 11:37:49;;;;;;;9.52;1.80;;;;;;;;;;6223603;23;19996;-74
2022/01/29 11:40:15;;;;;;;10.25;2.80;;;;;;;;;;6222955;23;20024;-73
2022/01/29 11:42:55;;;;;;;7.20;1.50;;;;;;;;;;6223000;23;20003;-74
2022/01/29 11:45:31;;;;;;;11.23;2.38;;;;;;;;;;6210819;23;20326;-73
2022/01/29 11:47:57;;;;;;;11.25;1.95;;;;;;;;;;6221207;23;20001;-73
2022/01/29 11:50:23;;;;;;;6.88;1.58;;;;;;;;;;6222021;23;20012;-73
2022/01/29 11:53:00;;;;;;;10.88;1.45;;;;;;;;;;6222365;23;19999;-73
2022/01/29 11:55:34;;;;;;;10.35;1.23;;;;;;;;;;6221581;23;20000;-73
2022/01/29 11:58:15;;;;;;;13.63;1.92;;;;;;;;;;6221313;23;20421;-73
2022/01/29 12:00:42;;;;;;;9.05;1.52;;;;;;;;;;6221952;23;19997;-73
2022/01/29 12:03:08;;;;;;;5.40;1.20;;;;;;;;;;6221209;23;20001;-73
2022/01/29 12:05:53;;;;;;;12.18;1.33;;;;;;;;;;6222052;23;20011;-74
2022/01/29 12:08:20;;;;;;;12.35;1.95;;;;;;;;;;6221385;23;19996;-74
2022/01/29 12:10:56;;;;;;;15.30;2.90;;;;;;;;;;6221396;23;20039;-74
2022/01/29 12:13:22;;;;;;;15.63;2.45;;;;;;;;;;6221751;23;20008;-74
2022/01/29 12:15:48;;;;;;;18.85;2.72;;;;;;;;;;6212855;23;20943;-73
2022/01/29 12:18:25;;;;;;;11.80;2.10;;;;;;;;;;6210193;23;20000;-74
2022/01/29 12:20:51;;;;;;;17.65;2.53;;;;;;;;;;6222302;23;20147;-74
2022/01/29 12:23:17;;;;;;;12.82;1.73;;;;;;;;;;6222276;23;20016;-74
2022/01/29 12:25:51;;;;;;;14.27;1.55;;;;;;;;;;6222069;23;20016;-74
2022/01/29 12:28:17;;;;;;;11.18;3.13;;;;;;;;;;6222729;23;19997;-73
2022/01/29 12:30:44;;;;;;;11.50;2.97;;;;;;;;;;6210553;23;20008;-74
2022/01/29 12:33:14;;;;;;;16.30;3.72;;;;;;;;;;6222914;23;20031;-73
2022/01/29 12:35:41;;;;;;;14.75;3.00;;;;;;;;;;6222979;23;20035;-73
2022/01/29 12:38:10;;;;;;;20.58;4.07;;;;;;;;;;6222191;23;20434;-73
2022/01/29 12:40:39;;;;;;;15.88;2.33;;;;;;;;;;6222720;23;20076;-73
2022/01/29 12:43:26;;;;;;;8.60;2.00;;;;;;;;;;6222879;23;20003;-73
2022/01/29 12:45:54;;;;;;;15.15;2.75;;;;;;;;;;6221947;23;19997;-73
2022/01/29 12:48:21;;;;;;;16.08;2.80;;;;;;;;;;6208769;23;20024;-72
2022/01/29 12:50:47;;;;;;;12.23;3.03;;;;;;;;;;6220138;23;20084;-73
2022/01/29 12:53:16;;;;;;;13.77;2.40;;;;;;;;;;6220573;23;20000;-73
2022/01/29 12:55:42;;;;;;;13.35;2.25;;;;;;;;;;6221668;23;20000;-72
2022/01/29 12:58:09;;;;;;;12.93;3.08;;;;;;;;;;6219397;23;20007;-73
2022/01/29 13:00:36;;;;;;;12.10;2.03;;;;;;;;;;6221938;23;20058;-73
2022/01/29 13:03:13;;;;;;;6.40;1.60;;;;;;;;;;6222377;23;20001;-73
2022/01/29 13:05:40;;;;;;;13.43;2.40;;;;;;;;;;6222151;23;20075;-73
2022/01/29 13:08:07;;;;;;;11.38;1.85;;;;;;;;;;6221869;23;20043;-73
2022/01/29 13:10:33;;;;;;;13.10;2.58;;;;;;;;;;6221445;23;20004;-73
2022/01/29 13:13:00;;;;;;;13.00;2.30;;;;;;;;;;6222361;23;20004;-73
2022/01/29 13:15:36;;;;;;;11.10;2.45;;;;;;;;;;6222445;23;20024;-73
2022/01/29 13:18:03;;;;;;;11.32;2.15;;;;;;;;;;6221645;23;20034;-73
2022/01/29 13:20:29;;;;;;;9.65;1.45;;;;;;;;;;6221978;23;20051;-73
2022/01/29 13:22:55;;;;;;;11.85;2.80;;;;;;;;;;6209867;23;20008;-73
2022/01/29 13:25:26;;;;;;;11.18;1.63;;;;;;;;;;6220443;23;20008;-73
2022/01/29 13:28:03;;;;;;;8.90;1.63;;;;;;;;;;6221452;23;20004;-72
2022/01/29 13:30:31;;;;;;;13.23;2.40;;;;;;;;;;6221354;23;20005;-72
2022/01/29 13:33:07;;;;;;;10.45;1.60;;;;;;;;;;6185711;23;20005;-73
2022/01/29 13:35:34;;;;;;;10.77;1.67;;;;;;;;;;6221370;23;20001;-72
2022/01/29 13:38:08;;;;;;;5.15;1.30;;;;;;;;;;6210071;23;20001;-72
2022/01/29 13:40:41;;;;;;;6.22;1.45;;;;;;;;;;6221462;23;20528;-72
2022/01/29 13:43:09;;;;;;;19.00;2.45;;;;;;;;;;6221892;23;20004;-73
2022/01/29 13:45:48;;;;;;;15.20;2.47;;;;;;;;;;6221937;23;20696;-72
2022/01/29 13:48:15;;;;;;;8.75;1.70;;;;;;;;;;6221340;23;20463;-72
2022/01/29 13:50:57;;;;;;;7.75;1.52;;;;;;;;;;6210645;23;20008;-72
2022/01/29 13:53:24;;;;;;;14.18;1.60;;;;;;;;;;6211967;23;20012;-72
2022/01/29 13:55:56;;;;;;;9.10;1.60;;;;;;;;;;6222411;23;20016;-70
2022/01/29 13:58:23;;;;;;;11.00;1.60;;;;;;;;;;6221552;23;19997;-72
2022/01/29 14:01:00;;;;;;;10.50;1.38;;;;;;;;;;6221757;23;20047;-71
2022/01/29 14:03:45;;;;;;;13.02;2.60;;;;;;;;;;6222289;23;20024;-72
2022/01/29 14:06:28;;;;;;;11.88;2.67;;;;;;;;;;6210764;23;20001;-72
2022/01/29 14:09:27;;;;;;;6.53;1.50;;;;;;;;;;6220999;23;20007;-72
2022/01/29 14:11:54;;;;;;;11.65;1.52;;;;;;;;;;6155493;23;20412;-72
2022/01/29 14:14:22;;;;;;;9.45;1.55;;;;;;;;;;6222306;23;20001;-71
2022/01/29 14:16:48;;;;;;;14.68;2.47;;;;;;;;;;6221637;23;19996;-72
2022/01/29 14:19:16;;;;;;;16.65;2.72;;;;;;;;;;6222841;23;19997;-72
2022/01/29 14:21:42;;;;;;;7.63;1.60;;;;;;;;;;6224212;23;20007;-72
2022/01/29 14:24:08;;;;;;;8.15;2.08;;;;;;;;;;6222855;23;20008;-72
2022/01/29 14:26:34;;;;;;;11.68;1.83;;;;;;;;;;6223230;23;20017;-72
2022/01/29 14:29:01;;;;;;;17.38;2.15;;;;;;;;;;6222768;23;20008;-71
2022/01/29 14:31:27;;;;;;;11.15;1.77;;;;;;;;;;6222155;23;19997;-72
2022/01/29 14:33:53;;;;;;;13.20;2.92;;;;;;;;;;6223187;23;20083;-72
2022/01/29 14:36:19;;;;;;;15.40;2.10;;;;;;;;;;6211243;23;20396;-73
2022/01/29 14:38:45;;;;;;;16.75;2.28;;;;;;;;;;6223234;23;20095;-73
2022/01/29 14:41:11;;;;;;;10.45;2.78;;;;;;;;;;6222727;23;19993;-72
2022/01/29 14:43:37;;;;;;;16.23;2.13;;;;;;;;;;6221914;23;20082;-72